createdAt,value
2018-03-07T00:00:49.411Z,91.79
2018-03-07T00:03:17.224Z,91.77
2018-03-07T00:05:45.066Z,91.80
2018-03-07T00:08:12.701Z,91.59
2018-03-07T00:10:40.277Z,91.44
2018-03-07T00:13:07.921Z,91.53
2018-03-07T00:15:35.775Z,91.55
2018-03-07T00:18:03.357Z,91.56
2018-03-07T00:20:31.218Z,91.70
2018-03-07T00:22:58.999Z,92.13
2018-03-07T00:25:26.674Z,92.94
2018-03-07T00:27:54.409Z,92.60
2018-03-07T00:30:22.126Z,93.00
2018-03-07T00:32:49.769Z,93.41
2018-03-07T00:35:17.342Z,93.99
2018-03-07T00:37:44.915Z,94.48
2018-03-07T00:40:12.837Z,94.89
2018-03-07T00:42:40.497Z,94.70
2018-03-07T00:45:08.174Z,94.11
2018-03-07T00:47:35.779Z,94.51
2018-03-07T00:50:03.428Z,95.02
2018-03-07T00:52:31.199Z,95.25
2018-03-07T00:54:58.945Z,95.64
2018-03-07T00:57:26.518Z,95.93
2018-03-07T00:59:54.147Z,96.00
2018-03-07T01:02:21.801Z,95.38
2018-03-07T01:04:50.463Z,94.85
2018-03-07T01:07:18.182Z,92.84
2018-03-07T01:09:45.952Z,93.86
2018-03-07T01:12:13.739Z,94.85
2018-03-07T01:14:41.577Z,94.63
2018-03-07T01:17:09.186Z,95.40
2018-03-07T01:19:36.965Z,95.47
2018-03-07T01:22:04.632Z,95.97
2018-03-07T01:24:32.371Z,96.21
2018-03-07T01:26:59.974Z,96.41
2018-03-07T01:29:27.774Z,96.44
2018-03-07T01:31:55.348Z,96.58
2018-03-07T01:34:23.093Z,96.72
2018-03-07T01:36:50.786Z,96.61
2018-03-07T01:39:18.464Z,96.88
2018-03-07T01:41:46.150Z,97.29
2018-03-07T01:44:13.932Z,96.96
2018-03-07T01:46:41.596Z,96.53
2018-03-07T01:49:09.333Z,97.73
2018-03-07T01:51:48.711Z,98.29
2018-03-07T01:54:16.510Z,98.73
2018-03-07T01:56:44.121Z,98.95
2018-03-07T01:59:11.799Z,99.15
2018-03-07T02:01:39.517Z,98.90
2018-03-07T02:04:07.207Z,99.17
2018-03-07T02:06:34.950Z,100.00
2018-03-07T02:09:02.692Z,100.00
2018-03-07T02:11:30.336Z,100.00
2018-03-07T02:13:58.120Z,100.00
2018-03-07T02:16:25.763Z,100.00
2018-03-07T02:18:53.336Z,100.00
2018-03-07T02:21:21.148Z,100.00
2018-03-07T02:23:48.820Z,100.00
2018-03-07T02:26:16.602Z,100.00
2018-03-07T02:28:44.450Z,100.00
2018-03-07T02:31:12.137Z,100.00
2018-03-07T02:33:39.930Z,100.00
2018-03-07T02:36:19.350Z,100.00
2018-03-07T02:38:46.948Z,100.00
2018-03-07T02:41:14.637Z,100.00
2018-03-07T02:43:42.394Z,100.00
2018-03-07T02:46:10.078Z,100.00
2018-03-07T02:48:37.757Z,100.00
2018-03-07T02:51:05.399Z,100.00
2018-03-07T02:53:33.162Z,100.00
2018-03-07T02:56:00.885Z,100.00
2018-03-07T02:58:28.554Z,100.00
2018-03-07T03:00:56.233Z,100.00
2018-03-07T03:03:24.020Z,100.00
2018-03-07T03:05:51.687Z,100.00
2018-03-07T03:08:19.337Z,100.00
2018-03-07T03:10:46.944Z,100.00
2018-03-07T03:13:14.525Z,100.00
2018-03-07T03:15:42.178Z,100.00
2018-03-07T03:18:09.956Z,100.00
2018-03-07T03:20:37.635Z,100.00
2018-03-07T03:23:05.332Z,100.00
2018-03-07T03:25:33.092Z,100.00
2018-03-07T03:28:00.757Z,100.00
2018-03-07T03:30:28.342Z,100.00
2018-03-07T03:32:56.009Z,100.00
2018-03-07T03:35:23.699Z,100.00
2018-03-07T03:37:51.289Z,100.00
2018-03-07T03:40:19.047Z,100.00
2018-03-07T03:42:46.635Z,100.00
2018-03-07T03:45:14.204Z,100.00
2018-03-07T03:47:41.971Z,100.00
2018-03-07T03:50:09.568Z,100.00
2018-03-07T03:52:37.218Z,100.00
2018-03-07T03:55:04.898Z,100.00
2018-03-07T03:57:32.636Z,100.00
2018-03-07T04:00:00.456Z,100.00
2018-03-07T04:02:28.171Z,100.00
2018-03-07T04:04:55.803Z,100.00
2018-03-07T04:07:23.421Z,100.00
2018-03-07T04:09:51.260Z,100.00
2018-03-07T04:12:19.140Z,100.00
2018-03-07T04:14:46.915Z,100.00
2018-03-07T04:17:14.594Z,100.00
2018-03-07T04:19:42.360Z,100.00
2018-03-07T04:22:09.946Z,100.00
2018-03-07T04:24:37.668Z,100.00
2018-03-07T04:27:05.326Z,100.00
2018-03-07T04:29:33.024Z,100.00
2018-03-07T04:32:00.848Z,100.00
2018-03-07T04:34:28.587Z,100.00
2018-03-07T04:36:56.298Z,100.00
2018-03-07T04:39:23.975Z,100.00
2018-03-07T04:41:51.759Z,100.00
2018-03-07T04:44:19.428Z,100.00
2018-03-07T04:46:47.023Z,100.00
2018-03-07T04:49:14.760Z,100.00
2018-03-07T04:51:42.528Z,100.00
2018-03-07T04:54:10.158Z,100.00
2018-03-07T04:56:38.015Z,100.00
2018-03-07T04:59:05.749Z,100.00
2018-03-07T05:01:33.448Z,100.00
2018-03-07T05:04:01.247Z,100.00
2018-03-07T05:06:28.842Z,100.00
2018-03-07T05:08:56.481Z,100.00
2018-03-07T05:11:24.274Z,100.00
2018-03-07T05:13:52.050Z,100.00
2018-03-07T05:16:19.791Z,100.00
2018-03-07T05:18:47.408Z,100.00
2018-03-07T05:21:15.075Z,100.00
2018-03-07T05:23:42.914Z,100.00
2018-03-07T05:26:10.630Z,100.00
2018-03-07T05:28:38.410Z,100.00
2018-03-07T05:31:06.081Z,100.00
2018-03-07T05:33:33.970Z,100.00
2018-03-07T05:36:01.847Z,100.00
2018-03-07T05:38:29.630Z,100.00
2018-03-07T05:40:57.273Z,100.00
2018-03-07T05:43:24.926Z,100.00
2018-03-07T05:45:52.750Z,100.00
2018-03-07T05:48:20.535Z,100.00
2018-03-07T05:50:48.303Z,100.00
2018-03-07T05:53:16.086Z,100.00
2018-03-07T05:55:43.699Z,100.00
2018-03-07T05:58:11.544Z,100.00
2018-03-07T06:00:39.212Z,100.00
2018-03-07T06:03:06.878Z,100.00
2018-03-07T06:05:34.496Z,100.00
2018-03-07T06:08:02.347Z,100.00
2018-03-07T06:10:30.012Z,100.00
2018-03-07T06:12:57.740Z,100.00
2018-03-07T06:15:25.463Z,100.00
2018-03-07T06:17:53.145Z,100.00
2018-03-07T06:20:20.791Z,100.00
2018-03-07T06:22:48.493Z,100.00
2018-03-07T06:25:16.282Z,100.00
2018-03-07T06:27:44.165Z,100.00
2018-03-07T06:30:11.883Z,100.00
2018-03-07T06:32:39.461Z,100.00
2018-03-07T06:35:07.285Z,100.00
2018-03-07T06:37:35.163Z,100.00
2018-03-07T06:40:03.048Z,100.00
2018-03-07T06:42:30.724Z,100.00
2018-03-07T06:44:58.390Z,100.00
2018-03-07T06:47:26.178Z,100.00
2018-03-07T06:49:54.059Z,100.00
2018-03-07T06:52:21.718Z,100.00
2018-03-07T06:54:49.308Z,100.00
2018-03-07T06:57:16.949Z,100.00
2018-03-07T06:59:44.528Z,100.00
2018-03-07T07:02:12.124Z,100.00
2018-03-07T07:04:39.799Z,100.00
2018-03-07T07:07:07.476Z,100.00
2018-03-07T07:09:35.143Z,100.00
2018-03-07T07:12:02.918Z,100.00
2018-03-07T07:14:30.608Z,100.00
2018-03-07T07:16:58.438Z,100.00
2018-03-07T07:19:26.114Z,100.00
2018-03-07T07:21:53.699Z,100.00
2018-03-07T07:24:21.566Z,100.00
2018-03-07T07:26:49.262Z,100.00
2018-03-07T07:29:16.951Z,100.00
2018-03-07T07:31:44.630Z,100.00
2018-03-07T07:34:12.300Z,100.00
2018-03-07T07:36:40.097Z,100.00
2018-03-07T07:39:07.747Z,100.00
2018-03-07T07:41:35.319Z,100.00
2018-03-07T07:44:03.012Z,100.00
2018-03-07T07:46:30.794Z,100.00
2018-03-07T07:48:58.425Z,100.00
2018-03-07T07:51:26.036Z,100.00
2018-03-07T07:53:53.821Z,100.00
2018-03-07T07:56:21.500Z,100.00
2018-03-07T07:58:49.085Z,100.00
2018-03-07T08:01:16.740Z,100.00
2018-03-07T08:03:44.418Z,100.00
2018-03-07T08:06:12.070Z,100.00
2018-03-07T08:08:39.658Z,100.00
2018-03-07T08:11:07.449Z,100.00
2018-03-07T08:13:35.092Z,100.00
2018-03-07T08:16:02.762Z,100.00
2018-03-07T08:18:30.581Z,100.00
2018-03-07T08:20:58.459Z,100.00
2018-03-07T08:23:26.029Z,100.00
2018-03-07T08:25:53.622Z,100.00
2018-03-07T08:28:22.164Z,100.00
2018-03-07T08:30:49.940Z,99.61
2018-03-07T08:33:17.764Z,99.99
2018-03-07T08:35:45.452Z,99.76
2018-03-07T08:38:13.319Z,99.43
2018-03-07T08:40:40.987Z,99.08
2018-03-07T08:43:08.664Z,97.44
2018-03-07T08:45:36.237Z,94.62
2018-03-07T08:48:04.016Z,93.95
2018-03-07T08:50:31.691Z,93.67
2018-03-07T08:52:59.473Z,91.43
2018-03-07T08:55:27.139Z,91.85
2018-03-07T08:57:54.810Z,92.85
2018-03-07T09:00:22.393Z,92.06
2018-03-07T09:02:49.977Z,91.82
2018-03-07T09:05:17.698Z,92.93
2018-03-07T09:07:45.302Z,92.32
2018-03-07T09:10:12.957Z,91.14
2018-03-07T09:12:40.666Z,91.79
2018-03-07T09:15:08.451Z,90.41
2018-03-07T09:17:36.081Z,86.22
2018-03-07T09:20:03.787Z,90.63
2018-03-07T09:22:31.585Z,89.56
2018-03-07T09:24:59.225Z,83.62
2018-03-07T09:27:27.033Z,84.75
2018-03-07T09:29:54.706Z,82.75
2018-03-07T09:32:22.341Z,83.71
2018-03-07T09:34:50.015Z,85.25
2018-03-07T09:37:17.604Z,84.17
2018-03-07T09:39:45.411Z,82.75
2018-03-07T09:42:12.985Z,82.26
2018-03-07T09:44:40.759Z,82.04
2018-03-07T09:47:08.427Z,82.03
2018-03-07T09:49:36.165Z,82.18
2018-03-07T09:52:03.766Z,83.16
2018-03-07T09:54:32.181Z,84.43
2018-03-07T09:56:59.860Z,84.12
2018-03-07T09:59:27.535Z,84.39
2018-03-07T10:01:55.335Z,83.75
2018-03-07T10:04:23.086Z,81.66
2018-03-07T10:06:50.698Z,82.33
2018-03-07T10:09:18.333Z,82.01
2018-03-07T10:11:46.116Z,80.44
2018-03-07T10:14:13.894Z,80.55
2018-03-07T10:16:41.548Z,80.14
2018-03-07T10:19:09.289Z,80.80
2018-03-07T10:21:36.901Z,79.02
2018-03-07T10:24:04.533Z,78.91
2018-03-07T10:26:32.161Z,78.35
2018-03-07T10:28:59.753Z,76.42
2018-03-07T10:31:27.415Z,76.48
2018-03-07T10:33:55.089Z,75.72
2018-03-07T10:36:22.871Z,77.00
2018-03-07T10:38:50.641Z,76.08
2018-03-07T10:41:18.311Z,75.24
2018-03-07T10:43:45.992Z,74.50
2018-03-07T10:46:13.604Z,75.07
2018-03-07T10:48:41.248Z,73.38
2018-03-07T10:51:08.917Z,72.02
2018-03-07T10:53:36.488Z,70.89
2018-03-07T10:56:04.274Z,70.55
2018-03-07T10:58:32.153Z,71.98
2018-03-07T11:00:59.745Z,70.95
2018-03-07T11:03:27.342Z,72.37
2018-03-07T11:05:55.966Z,72.69
2018-03-07T11:08:23.555Z,71.39
2018-03-07T11:10:51.234Z,71.28
2018-03-07T11:13:18.911Z,70.27
2018-03-07T11:15:46.806Z,72.00
2018-03-07T11:18:17.346Z,72.95
2018-03-07T11:20:45.017Z,70.40
2018-03-07T11:23:12.684Z,67.19
2018-03-07T11:25:40.295Z,67.13
2018-03-07T11:28:08.105Z,66.80
2018-03-07T11:30:35.716Z,65.96
2018-03-07T11:33:03.461Z,65.78
2018-03-07T11:35:31.175Z,65.45
2018-03-07T11:37:58.952Z,63.89
2018-03-07T11:40:26.538Z,62.10
2018-03-07T11:42:54.411Z,63.19
2018-03-07T11:45:22.074Z,62.24
2018-03-07T11:47:49.862Z,63.83
2018-03-07T11:50:17.746Z,62.06
2018-03-07T11:52:45.328Z,63.74
2018-03-07T11:55:12.980Z,63.83
2018-03-07T11:57:40.659Z,61.59
2018-03-07T12:00:08.446Z,60.22
2018-03-07T12:02:36.102Z,60.52
2018-03-07T12:05:03.792Z,59.85
2018-03-07T12:07:31.457Z,59.57
2018-03-07T12:09:59.252Z,59.65
2018-03-07T12:12:26.885Z,59.42
2018-03-07T12:14:54.592Z,60.07
2018-03-07T12:17:22.384Z,61.01
2018-03-07T12:19:50.034Z,61.50
2018-03-07T12:22:17.729Z,61.03
2018-03-07T12:24:45.393Z,61.30
2018-03-07T12:27:13.080Z,59.12
2018-03-07T12:29:40.742Z,56.98
2018-03-07T12:32:08.424Z,57.88
2018-03-07T12:34:36.073Z,53.40
2018-03-07T12:37:03.646Z,52.60
2018-03-07T12:39:31.221Z,52.02
2018-03-07T12:41:58.929Z,53.20
2018-03-07T12:44:26.549Z,52.89
2018-03-07T12:46:54.187Z,56.00
2018-03-07T12:49:21.912Z,53.59
2018-03-07T12:51:49.697Z,53.21
2018-03-07T12:54:17.395Z,52.84
2018-03-07T12:56:45.082Z,54.55
2018-03-07T12:59:12.865Z,54.65
2018-03-07T13:01:40.588Z,53.73
2018-03-07T13:04:08.216Z,54.69
2018-03-07T13:06:35.944Z,54.88
2018-03-07T13:09:03.615Z,54.70
2018-03-07T13:11:31.257Z,55.98
2018-03-07T13:13:58.971Z,54.52
2018-03-07T13:16:26.737Z,53.80
2018-03-07T13:18:54.580Z,54.40
2018-03-07T13:21:22.239Z,52.37
2018-03-07T13:23:49.846Z,54.36
2018-03-07T13:26:17.430Z,54.26
2018-03-07T13:28:45.177Z,54.80
2018-03-07T13:31:12.842Z,54.07
2018-03-07T13:33:40.627Z,50.70
2018-03-07T13:36:08.286Z,55.39
2018-03-07T13:38:36.038Z,53.79
2018-03-07T13:41:03.746Z,49.50
2018-03-07T13:43:31.435Z,53.82
2018-03-07T13:45:59.105Z,52.06
2018-03-07T13:48:26.699Z,50.58
2018-03-07T13:50:54.519Z,50.50
2018-03-07T13:53:22.136Z,51.20
2018-03-07T13:55:49.913Z,51.68
2018-03-07T13:58:17.581Z,53.39
2018-03-07T14:00:45.374Z,52.04
2018-03-07T14:03:13.046Z,52.34
2018-03-07T14:05:40.822Z,53.25
2018-03-07T14:08:08.601Z,52.51
2018-03-07T14:10:36.375Z,50.50
2018-03-07T14:13:04.156Z,50.60
2018-03-07T14:15:31.892Z,51.73
2018-03-07T14:17:59.595Z,52.26
2018-03-07T14:20:27.351Z,55.21
2018-03-07T14:22:54.925Z,54.55
2018-03-07T14:25:22.636Z,55.56
2018-03-07T14:27:50.418Z,55.82
2018-03-07T14:30:18.194Z,56.98
2018-03-07T14:32:45.847Z,58.07
2018-03-07T14:35:13.644Z,56.56
2018-03-07T14:37:41.326Z,55.95
2018-03-07T14:40:09.015Z,55.46
2018-03-07T14:42:36.692Z,55.78
2018-03-07T14:45:04.554Z,56.15
2018-03-07T14:50:06.352Z,56.48
2018-03-07T14:52:34.029Z,56.36
2018-03-07T14:55:01.699Z,55.90
2018-03-07T14:57:29.370Z,56.95
2018-03-07T14:59:57.058Z,57.46
2018-03-07T15:02:24.663Z,56.51
2018-03-07T15:04:52.304Z,56.34
2018-03-07T15:07:20.089Z,57.15
2018-03-07T15:09:47.673Z,56.98
2018-03-07T15:12:15.310Z,57.08
2018-03-07T15:14:42.999Z,57.02
2018-03-07T15:17:10.681Z,57.36
2018-03-07T15:19:38.463Z,57.31
2018-03-07T15:22:06.123Z,57.53
2018-03-07T15:24:33.811Z,57.38
2018-03-07T15:27:01.403Z,56.99
2018-03-07T15:29:29.044Z,57.36
2018-03-07T15:31:56.835Z,57.49
2018-03-07T15:34:24.576Z,57.69
2018-03-07T15:36:52.166Z,61.33
2018-03-07T15:39:19.848Z,65.76
2018-03-07T15:41:47.542Z,66.62
2018-03-07T15:44:15.209Z,68.14
2018-03-07T15:46:42.826Z,69.71
2018-03-07T15:49:10.460Z,71.03
2018-03-07T15:51:38.130Z,70.79
2018-03-07T15:54:05.703Z,72.19
2018-03-07T15:56:33.273Z,72.82
2018-03-07T15:59:00.905Z,73.00
2018-03-07T16:01:28.520Z,73.34
2018-03-07T16:03:56.318Z,73.45
2018-03-07T16:06:23.999Z,73.44
2018-03-07T16:08:51.602Z,74.98
2018-03-07T16:11:19.200Z,75.11
2018-03-07T16:13:46.864Z,74.89
2018-03-07T16:16:14.698Z,74.96
2018-03-07T16:18:42.474Z,75.41
2018-03-07T16:21:10.078Z,74.66
2018-03-07T16:23:37.927Z,75.42
2018-03-07T16:26:05.803Z,74.94
2018-03-07T16:28:33.586Z,75.83
2018-03-07T16:31:01.348Z,76.34
2018-03-07T16:33:29.142Z,75.73
2018-03-07T16:35:56.867Z,75.51
2018-03-07T16:38:24.512Z,75.72
2018-03-07T16:40:52.266Z,77.14
2018-03-07T16:43:20.020Z,79.32
2018-03-07T16:45:47.714Z,80.52
2018-03-07T16:48:15.503Z,82.48
2018-03-07T16:50:43.279Z,82.83
2018-03-07T16:53:10.951Z,82.86
2018-03-07T16:55:38.625Z,83.11
2018-03-07T16:58:06.248Z,83.94
2018-03-07T17:00:33.851Z,85.25
2018-03-07T17:03:01.495Z,86.75
2018-03-07T17:05:29.139Z,88.22
2018-03-07T17:07:56.785Z,89.10
2018-03-07T17:10:24.437Z,88.77
2018-03-07T17:12:52.038Z,88.67
2018-03-07T17:15:19.713Z,89.66
2018-03-07T17:17:47.610Z,90.14
2018-03-07T17:20:15.389Z,90.15
2018-03-07T17:22:43.047Z,90.65
2018-03-07T17:25:10.734Z,90.80
2018-03-07T17:27:38.400Z,91.29
2018-03-07T17:30:06.022Z,91.42
2018-03-07T17:32:33.744Z,92.02
2018-03-07T17:35:01.350Z,92.12
2018-03-07T17:37:29.117Z,91.71
2018-03-07T17:39:56.771Z,91.67
2018-03-07T17:42:24.566Z,91.79
2018-03-07T17:44:52.198Z,91.75
2018-03-07T17:47:19.844Z,91.97
2018-03-07T17:49:47.584Z,92.51
2018-03-07T17:52:15.149Z,92.37
2018-03-07T17:54:43.860Z,92.31
2018-03-07T17:57:11.750Z,92.27
2018-03-07T17:59:39.413Z,92.00
2018-03-07T18:02:07.027Z,92.05
2018-03-07T18:04:34.767Z,92.06
2018-03-07T18:07:02.553Z,92.05
2018-03-07T18:09:30.173Z,92.15
2018-03-07T18:11:57.757Z,93.46
2018-03-07T18:14:25.383Z,93.57
2018-03-07T18:16:53.049Z,93.74
2018-03-07T18:19:20.893Z,93.64
2018-03-07T18:21:48.500Z,94.37
2018-03-07T18:24:16.066Z,95.55
2018-03-07T18:26:43.738Z,96.34
2018-03-07T18:29:11.422Z,96.82
2018-03-07T18:31:39.116Z,96.17
2018-03-07T18:34:06.866Z,95.79
2018-03-07T18:36:34.476Z,95.34
2018-03-07T18:39:02.144Z,95.28
2018-03-07T18:41:30.009Z,95.36
2018-03-07T18:43:57.800Z,95.15
2018-03-07T18:46:25.628Z,94.94
2018-03-07T18:48:53.318Z,96.29
2018-03-07T18:51:21.120Z,96.36
2018-03-07T18:53:48.904Z,97.02
2018-03-07T18:56:16.677Z,96.99
2018-03-07T18:58:44.458Z,97.99
2018-03-07T19:01:12.136Z,97.92
2018-03-07T19:03:39.904Z,98.04
2018-03-07T19:06:07.574Z,98.04
2018-03-07T19:08:35.249Z,98.30
2018-03-07T19:11:02.992Z,97.96
2018-03-07T19:13:30.818Z,97.99
2018-03-07T19:15:58.488Z,97.61
2018-03-07T19:18:26.213Z,96.76
2018-03-07T19:20:53.831Z,95.34
2018-03-07T19:23:21.722Z,95.01
2018-03-07T19:25:49.502Z,95.26
2018-03-07T19:28:17.179Z,95.81
2018-03-07T19:30:44.772Z,96.95
2018-03-07T19:33:12.452Z,97.92
2018-03-07T19:35:40.100Z,99.03
2018-03-07T19:38:07.880Z,99.14
2018-03-07T19:40:35.862Z,98.49
2018-03-07T19:43:03.537Z,98.34
2018-03-07T19:45:31.420Z,98.24
2018-03-07T19:47:59.090Z,97.96
2018-03-07T19:50:26.861Z,97.85
2018-03-07T19:52:54.544Z,97.77
2018-03-07T19:55:22.428Z,97.60
2018-03-07T19:57:50.210Z,97.18
2018-03-07T20:00:18.106Z,96.37
2018-03-07T20:02:45.841Z,95.74
2018-03-07T20:05:13.709Z,96.10
2018-03-07T20:07:41.374Z,96.08
2018-03-07T20:10:08.995Z,96.33
2018-03-07T20:12:36.832Z,96.31
2018-03-07T20:15:04.600Z,96.28
2018-03-07T20:17:32.174Z,96.23
2018-03-07T20:19:59.962Z,96.24
2018-03-07T20:22:27.666Z,96.23
2018-03-07T20:24:55.250Z,96.17
2018-03-07T20:27:22.920Z,96.80
2018-03-07T20:29:50.646Z,98.07
2018-03-07T20:32:18.377Z,98.54
2018-03-07T20:34:46.107Z,97.70
2018-03-07T20:37:13.732Z,98.00
2018-03-07T20:39:41.511Z,98.14
2018-03-07T20:42:09.289Z,97.70
2018-03-07T20:44:37.172Z,98.00
2018-03-07T20:47:04.805Z,98.39
2018-03-07T20:49:32.414Z,98.69
2018-03-07T20:52:00.084Z,99.19
2018-03-07T20:54:27.766Z,99.94
2018-03-07T20:56:55.354Z,100.00
2018-03-07T20:59:23.013Z,100.00
2018-03-07T21:01:50.676Z,100.00
2018-03-07T21:04:18.358Z,100.00
2018-03-07T21:06:46.035Z,100.00
2018-03-07T21:09:13.822Z,100.00
2018-03-07T21:11:41.552Z,100.00
2018-03-07T21:14:09.129Z,100.00
2018-03-07T21:16:36.955Z,100.00
2018-03-07T21:19:04.568Z,100.00
2018-03-07T21:21:32.229Z,100.00
2018-03-07T21:23:59.857Z,100.00
2018-03-07T21:26:27.442Z,100.00
2018-03-07T21:28:55.333Z,100.00
2018-03-07T21:31:23.213Z,100.00
2018-03-07T21:33:50.838Z,100.00
2018-03-07T21:36:18.518Z,100.00
2018-03-07T21:38:46.228Z,100.00
2018-03-07T21:41:14.118Z,100.00
2018-03-07T21:43:41.708Z,100.00
2018-03-07T21:46:09.576Z,100.00
2018-03-07T21:48:37.352Z,100.00
2018-03-07T21:51:04.932Z,100.00
2018-03-07T21:53:32.699Z,100.00
2018-03-07T21:56:00.359Z,100.00
2018-03-07T21:58:27.942Z,100.00
2018-03-07T22:00:55.727Z,100.00
2018-03-07T22:03:23.385Z,100.00
2018-03-07T22:05:51.120Z,100.00
2018-03-07T22:08:18.801Z,100.00
2018-03-07T22:10:46.413Z,100.00
2018-03-07T22:13:14.086Z,100.00
2018-03-07T22:15:41.762Z,100.00
2018-03-07T22:18:09.453Z,100.00
2018-03-07T22:20:37.234Z,100.00
2018-03-07T22:23:04.906Z,100.00
2018-03-07T22:25:32.575Z,100.00
2018-03-07T22:28:00.324Z,100.00
2018-03-07T22:30:27.965Z,100.00
2018-03-07T22:32:55.538Z,100.00
2018-03-07T22:35:23.116Z,100.00
2018-03-07T22:37:50.765Z,100.00
2018-03-07T22:40:18.534Z,100.00
2018-03-07T22:42:46.113Z,100.00
2018-03-07T22:45:13.886Z,100.00
2018-03-07T22:47:41.552Z,100.00
2018-03-07T22:50:09.244Z,100.00
2018-03-07T22:52:36.899Z,100.00
2018-03-07T22:55:04.795Z,100.00
2018-03-07T22:57:32.571Z,100.00
2018-03-07T23:00:00.160Z,100.00
2018-03-07T23:02:28.005Z,100.00
2018-03-07T23:04:55.653Z,100.00
2018-03-07T23:07:23.224Z,100.00
2018-03-07T23:09:51.053Z,100.00
2018-03-07T23:12:18.624Z,100.00
2018-03-07T23:14:46.306Z,100.00
2018-03-07T23:17:13.970Z,100.00
2018-03-07T23:19:41.554Z,100.00
2018-03-07T23:22:09.212Z,100.00
2018-03-07T23:24:37.004Z,100.00
2018-03-07T23:27:04.581Z,100.00
2018-03-07T23:29:32.240Z,100.00
2018-03-07T23:31:59.977Z,100.00
2018-03-07T23:34:27.601Z,100.00
2018-03-07T23:36:55.484Z,100.00
2018-03-07T23:39:23.263Z,100.00
2018-03-07T23:41:50.861Z,100.00
2018-03-07T23:44:18.512Z,100.00
2018-03-07T23:46:46.084Z,100.00
2018-03-07T23:49:13.967Z,100.00
2018-03-07T23:51:41.844Z,100.00
2018-03-07T23:54:09.512Z,100.00
2018-03-07T23:56:37.186Z,100.00
2018-03-07T23:59:04.899Z,100.00
